Time;durP1;ratioP1;P1;durP2;ratioP2;P2;SDS_P1;SDS_P2;PMS_P1;PMS_P2;Temp;Humidity;BMP_temperature;BMP_pressure;BME280_temperature;BME280_humidity;BME280_pressure;Samples;Min_cycle;Max_cycle;Signal;HPM_P1;HPM_P2
2023/08/10 00:00:17;;;;;;;5.60;4.15;;;;;;;;;;5093740;28;20035;-76
2023/08/10 00:02:44;;;;;;;5.90;4.38;;;;;;;;;;5092760;28;20376;-76
2023/08/10 00:05:10;;;;;;;5.88;4.38;;;;;;;;;;5092299;28;20024;-76
2023/08/10 00:07:36;;;;;;;5.85;4.13;;;;;;;;;;5094154;28;20035;-77
2023/08/10 00:10:03;;;;;;;6.57;3.75;;;;;;;;;;5092455;28;20387;-77
2023/08/10 00:12:29;;;;;;;7.25;3.90;;;;;;;;;;5075681;28;20025;-77
2023/08/10 00:14:56;;;;;;;5.85;3.80;;;;;;;;;;5072320;28;20461;-79
2023/08/10 00:17:22;;;;;;;5.28;3.72;;;;;;;;;;5073477;28;20477;-77
2023/08/10 00:19:49;;;;;;;5.55;3.88;;;;;;;;;;5071955;28;20036;-76
2023/08/10 00:22:15;;;;;;;6.55;4.10;;;;;;;;;;5072027;28;20464;-76
2023/08/10 00:24:42;;;;;;;7.35;4.85;;;;;;;;;;5072249;28;20032;-76
2023/08/10 00:27:08;;;;;;;7.45;4.88;;;;;;;;;;5071842;28;20077;-79
2023/08/10 00:29:34;;;;;;;6.55;4.60;;;;;;;;;;5073563;28;20453;-77
2023/08/10 00:32:01;;;;;;;5.63;4.55;;;;;;;;;;5071872;28;20595;-78
2023/08/10 00:34:26;;;;;;;8.02;4.97;;;512.10;2380.80;;;;;;5072154;28;20053;-77
2023/08/10 00:36:52;;;;;;;6.60;4.82;;;487.10;2380.80;;;;;;5071912;28;20090;-77
2023/08/10 00:39:18;;;;;;;6.53;5.05;;;487.10;2380.80;;;;;;5071520;28;20025;-77
2023/08/10 00:41:44;;;;;;;5.68;4.63;;;487.00;2380.80;;;;;;5071760;28;20369;-76
2023/08/10 00:44:10;;;;;;;7.20;5.10;;;486.90;2380.80;;;;;;5072100;28;20030;-82
2023/08/10 00:46:37;;;;;;;9.40;5.15;;;486.90;2380.80;;;;;;5072712;28;20104;-79
2023/08/10 00:49:03;;;;;;;7.25;5.03;;;487.00;2380.80;;;;;;5071599;28;20052;-78
2023/08/10 00:51:30;;;;;;;6.03;4.70;;;486.80;2380.80;;;;;;5071808;28;20039;-78
2023/08/10 00:53:56;;;;;;;8.35;5.53;;;486.80;2380.80;;;;;;5072700;28;20385;-78
2023/08/10 00:56:22;;;;;;;5.93;4.78;;;486.80;2380.80;;;;;;5072382;28;20040;-79
2023/08/10 00:58:48;;;;;;;5.68;4.45;;;486.80;2380.80;;;;;;5072553;28;20024;-79
2023/08/10 01:01:14;;;;;;;7.70;5.18;;;487.00;2380.80;;;;;;5071625;28;20028;-78
2023/08/10 01:03:40;;;;;;;5.55;4.82;;;486.90;2380.80;;;;;;5072016;28;20024;-80
2023/08/10 01:06:22;;;;;;;7.38;4.43;;;486.80;2380.80;;;;;;5071858;28;20474;-78
2023/08/10 01:09:28;;;;;;;5.43;4.20;;;486.80;2380.80;;;;;;5071704;28;20456;-78
2023/08/10 01:12:20;;;;;;;8.23;4.35;;;486.90;2380.80;;;;;;5072160;28;20029;-79
2023/08/10 01:15:16;;;;;;;10.27;4.83;;;486.70;2380.80;;;;;;5071691;28;20138;-79
2023/08/10 01:17:50;;;;;;;7.15;4.00;;;486.80;2380.80;;;;;;5071581;28;20071;-78
2023/08/10 01:20:19;;;;;;;6.93;4.40;;;486.80;2380.80;;;;;;5071971;28;20396;-79
2023/08/10 01:23:14;;;;;;;5.72;4.28;;;486.80;2380.80;;;;;;5071189;28;20119;-79
2023/08/10 01:25:42;;;;;;;8.18;4.20;;;486.80;2380.80;;;;;;5071247;28;20039;-78
2023/08/10 01:28:09;;;;;;;6.53;4.05;;;486.80;2380.80;;;;;;5076655;28;20032;-77
2023/08/10 01:30:36;;;;;;;8.38;4.38;;;486.90;2380.80;;;;;;5076235;28;20583;-77
2023/08/10 01:33:01;;;;;;;8.20;4.60;;;486.90;2380.80;;;;;;5075255;28;20024;-77
2023/08/10 01:35:27;;;;;;;10.38;4.22;;;487.00;2380.80;;;;;;5074864;28;20028;-77
2023/08/10 01:37:53;;;;;;;7.00;4.95;;;486.90;2380.80;;;;;;5075088;28;20020;-78
2023/08/10 01:40:19;;;;;;;6.13;4.13;;;487.00;2380.80;;;;;;5076303;28;20032;-78
2023/08/10 01:42:45;;;;;;;5.50;4.63;;;486.90;2380.80;;;;;;5076471;28;20024;-78
2023/08/10 01:45:12;;;;;;;5.97;3.92;;;486.90;2380.80;;;;;;5075139;28;20375;-79
2023/08/10 01:47:51;;;;;;;5.13;4.07;;;486.90;2380.80;;;;;;5075080;28;20055;-78
2023/08/10 01:50:19;;;;;;;5.35;4.03;;;486.90;2380.80;;;;;;5074928;28;20170;-79
2023/08/10 01:52:51;;;;;;;6.72;4.00;;;486.80;2380.80;;;;;;5075190;28;20021;-78
2023/08/10 01:55:18;;;;;;;7.20;4.13;;;486.80;2380.80;;;;;;5098699;28;20028;-76
2023/08/10 01:57:44;;;;;;;6.40;4.95;;;486.90;2380.80;;;;;;5090514;28;20031;-80
2023/08/10 02:00:12;;;;;;;6.57;4.53;;;487.00;2380.80;;;;;;5074694;28;20404;-79
2023/08/10 02:02:38;;;;;;;8.07;4.78;;;487.10;2380.80;;;;;;5075894;28;20414;-80
2023/08/10 02:05:05;;;;;;;5.93;4.57;;;487.20;2380.80;;;;;;5074485;28;20021;-78
2023/08/10 02:07:31;;;;;;;6.22;4.78;;;487.00;2380.80;;;;;;5075720;28;20086;-79
2023/08/10 02:09:57;;;;;;;5.40;4.28;;;487.00;2380.80;;;;;;5074331;28;20036;-78
2023/08/10 02:12:24;;;;;;;7.60;4.63;;;486.80;2380.80;;;;;;5075686;28;20062;-77
2023/08/10 02:14:50;;;;;;;5.78;4.35;;;486.80;2380.80;;;;;;5075523;28;20050;-78
2023/08/10 02:17:16;;;;;;;6.13;4.07;;;486.70;2380.80;;;;;;5075188;28;20040;-80
2023/08/10 02:19:42;;;;;;;7.97;4.80;;;486.80;2380.80;;;;;;5074423;28;20497;-78
2023/08/10 02:22:08;;;;;;;5.40;4.35;;;486.60;2380.80;;;;;;5074413;28;20029;-79
2023/08/10 02:24:34;;;;;;;7.65;4.53;;;486.70;2380.80;;;;;;5073974;28;20060;-80
2023/08/10 02:27:00;;;;;;;5.85;4.38;;;486.70;2380.80;;;;;;5074400;28;20078;-80
2023/08/10 02:29:25;;;;;;;8.40;4.78;;;486.80;2380.80;;;;;;5075211;28;20388;-78
2023/08/10 02:31:51;;;;;;;6.35;4.82;;;486.90;2380.80;;;;;;5075571;28;20031;-78
2023/08/10 02:34:17;;;;;;;6.03;4.72;;;486.80;2380.80;;;;;;5075414;28;20532;-79
2023/08/10 02:36:43;;;;;;;6.45;4.93;;;486.60;2380.80;;;;;;5073749;28;20029;-78
2023/08/10 02:39:09;;;;;;;6.43;4.30;;;486.50;2380.80;;;;;;5073780;28;20078;-78
2023/08/10 02:41:35;;;;;;;6.75;4.40;;;486.70;2380.80;;;;;;5073817;28;20032;-80
2023/08/10 02:44:01;;;;;;;6.70;4.75;;;486.60;2380.80;;;;;;5075030;28;20024;-79
2023/08/10 02:46:27;;;;;;;6.55;4.35;;;486.60;2380.80;;;;;;5075082;28;20055;-80
2023/08/10 02:48:54;;;;;;;6.28;4.25;;;486.40;2380.80;;;;;;5075073;28;20024;-79
2023/08/10 02:51:20;;;;;;;6.22;4.32;;;486.40;2380.80;;;;;;5073532;28;20040;-80
2023/08/10 02:53:46;;;;;;;6.47;4.20;;;486.40;2380.80;;;;;;5073494;28;20025;-79
2023/08/10 02:56:11;;;;;;;5.25;3.60;;;486.40;2380.80;;;;;;5073450;28;20056;-78
2023/08/10 02:58:38;;;;;;;5.90;4.72;;;486.40;2380.80;;;;;;5073766;28;20021;-78
2023/08/10 03:01:07;;;;;;;7.78;4.38;;;486.40;2380.80;;;;;;5073365;28;20075;-78
2023/08/10 03:03:34;;;;;;;4.82;3.60;;;461.70;2380.80;;;;;;5074816;28;20028;-77
2023/08/10 03:06:00;;;;;;;6.57;4.50;;;461.60;2380.80;;;;;;5073099;28;20423;-78
2023/08/10 03:08:26;;;;;;;5.20;3.92;;;461.50;2380.80;;;;;;5074502;28;20021;-78
2023/08/10 03:10:52;;;;;;;4.75;3.55;;;461.70;2380.80;;;;;;5073362;28;20036;-78
2023/08/10 03:13:18;;;;;;;4.80;3.65;;;461.50;2380.80;;;;;;5074397;28;20028;-78
2023/08/10 03:15:43;;;;;;;6.30;4.07;;;486.40;2380.80;;;;;;5073317;28;20070;-77
2023/08/10 03:18:09;;;;;;;5.22;4.15;;;486.50;2380.80;;;;;;5072801;28;20040;-77
2023/08/10 03:20:35;;;;;;;6.72;3.60;;;486.50;2380.80;;;;;;5072897;28;20446;-79
2023/08/10 03:23:01;;;;;;;8.93;4.25;;;486.40;2380.80;;;;;;5073278;28;20055;-79
2023/08/10 03:25:27;;;;;;;5.03;4.03;;;486.50;2380.80;;;;;;5074568;28;20388;-79
2023/08/10 03:27:53;;;;;;;5.75;3.80;;;486.50;2380.80;;;;;;5073074;28;20377;-78
2023/08/10 03:30:19;;;;;;;4.82;3.55;;;486.50;2380.80;;;;;;5074273;28;20452;-78
2023/08/10 03:32:45;;;;;;;6.53;4.07;;;486.50;2380.80;;;;;;5072514;28;20025;-78
2023/08/10 03:35:11;;;;;;;6.57;3.80;;;486.50;2380.80;;;;;;5072694;28;20480;-79
2023/08/10 03:37:37;;;;;;;4.95;3.67;;;486.40;2380.80;;;;;;5073063;28;20048;-78
2023/08/10 03:40:03;;;;;;;4.85;3.45;;;486.40;2380.80;;;;;;5072760;28;20384;-78
2023/08/10 03:42:29;;;;;;;4.65;3.72;;;486.40;2380.80;;;;;;5073784;28;20029;-79
2023/08/10 03:44:55;;;;;;;4.90;3.80;;;486.50;2380.80;;;;;;5072622;28;20024;-79
2023/08/10 03:47:22;;;;;;;4.95;3.65;;;486.50;2380.80;;;;;;5072232;28;20154;-79
2023/08/10 03:49:48;;;;;;;7.80;3.80;;;486.50;2380.80;;;;;;5072180;28;20158;-79
2023/08/10 03:52:14;;;;;;;5.35;3.75;;;486.60;2380.80;;;;;;5072503;28;20029;-77
2023/08/10 03:54:40;;;;;;;4.40;3.67;;;486.60;2380.80;;;;;;5072244;28;20027;-78
2023/08/10 03:57:05;;;;;;;4.82;3.33;;;486.70;2380.80;;;;;;5072251;28;20448;-80
2023/08/10 03:59:31;;;;;;;6.13;3.75;;;486.60;2380.80;;;;;;5072458;28;20040;-78
2023/08/10 04:01:58;;;;;;;5.05;3.47;;;486.50;2380.80;;;;;;5073639;28;20078;-78
2023/08/10 04:04:24;;;;;;;4.93;3.50;;;486.50;2380.80;;;;;;5072542;28;20420;-78
2023/08/10 04:06:49;;;;;;;5.28;3.67;;;486.40;2380.80;;;;;;5072613;28;20081;-77
2023/08/10 04:09:15;;;;;;;6.60;3.85;;;486.40;2380.80;;;;;;5072000;28;20043;-78
2023/08/10 04:11:41;;;;;;;5.68;4.53;;;486.40;2380.80;;;;;;5072368;28;20036;-78
2023/08/10 04:14:07;;;;;;;9.55;4.32;;;486.40;2380.80;;;;;;5073679;28;20024;-79
2023/08/10 04:16:32;;;;;;;5.80;4.30;;;486.40;2380.80;;;;;;5072030;28;20358;-78
2023/08/10 04:18:58;;;;;;;6.63;4.90;;;461.70;2380.80;;;;;;5073634;28;20044;-78
2023/08/10 04:21:24;;;;;;;6.72;4.68;;;461.50;2380.80;;;;;;5072236;28;20035;-78
2023/08/10 04:23:50;;;;;;;8.80;4.28;;;461.40;2380.80;;;;;;5073322;28;20032;-78
2023/08/10 04:26:17;;;;;;;6.97;5.53;;;461.50;2380.80;;;;;;5072350;28;20029;-77
2023/08/10 04:28:43;;;;;;;8.02;4.95;;;461.50;2380.80;;;;;;5073505;28;20029;-79
2023/08/10 04:31:09;;;;;;;6.35;4.68;;;461.50;2380.80;;;;;;5071963;28;20039;-78
2023/08/10 04:33:35;;;;;;;5.32;4.80;;;461.60;2380.80;;;;;;5072212;28;20147;-78
2023/08/10 04:36:02;;;;;;;6.97;4.68;;;461.70;2380.80;;;;;;5072152;28;20029;-78
2023/08/10 04:38:28;;;;;;;7.18;5.07;;;461.60;2380.80;;;;;;5073145;28;20028;-78
2023/08/10 04:40:54;;;;;;;6.15;4.10;;;486.40;2380.80;;;;;;5072169;28;20369;-79
2023/08/10 04:43:20;;;;;;;8.20;4.60;;;461.70;2380.80;;;;;;5072198;28;20027;-79
2023/08/10 04:45:46;;;;;;;8.82;4.75;;;461.70;2380.80;;;;;;5071805;28;20112;-78
2023/08/10 04:48:13;;;;;;;6.85;4.13;;;461.70;2380.80;;;;;;5072209;28;20033;-79
2023/08/10 04:50:39;;;;;;;5.18;4.18;;;461.70;2380.80;;;;;;5073495;28;20028;-80
2023/08/10 04:53:04;;;;;;;6.20;4.40;;;486.40;2380.80;;;;;;5072693;28;20070;-78
2023/08/10 04:55:30;;;;;;;5.60;4.57;;;486.40;2380.80;;;;;;5072118;28;20025;-80
2023/08/10 04:57:56;;;;;;;8.88;4.90;;;486.50;2380.80;;;;;;5071031;28;20499;-78
2023/08/10 05:00:23;;;;;;;8.13;4.38;;;486.50;2380.80;;;;;;5076048;28;20036;-78
2023/08/10 05:02:50;;;;;;;8.75;4.80;;;486.50;2380.80;;;;;;5075920;28;20032;-77
2023/08/10 05:05:17;;;;;;;8.70;4.57;;;486.60;2380.80;;;;;;5075710;28;20020;-78
2023/08/10 05:07:43;;;;;;;6.22;4.50;;;486.60;2380.80;;;;;;5077115;28;20354;-78
2023/08/10 05:10:09;;;;;;;5.65;4.57;;;486.50;2380.80;;;;;;5075707;28;20058;-78
2023/08/10 05:12:37;;;;;;;6.72;5.05;;;486.60;2380.80;;;;;;5076093;28;20025;-78
2023/08/10 05:15:04;;;;;;;6.78;5.18;;;486.50;2380.80;;;;;;5077278;28;20073;-78
2023/08/10 05:17:30;;;;;;;5.60;4.28;;;486.40;2380.80;;;;;;5076394;28;20122;-78
2023/08/10 05:19:56;;;;;;;10.88;5.03;;;486.50;2380.80;;;;;;5075154;28;20469;-78
2023/08/10 05:22:22;;;;;;;8.20;5.13;;;486.40;2380.80;;;;;;5075643;28;20069;-77
2023/08/10 05:24:47;;;;;;;7.65;4.55;;;486.40;2380.80;;;;;;5076798;28;20108;-79
2023/08/10 05:27:13;;;;;;;5.35;4.78;;;486.40;2380.80;;;;;;5076528;28;20099;-78
2023/08/10 05:29:39;;;;;;;7.70;4.75;;;486.60;2380.80;;;;;;5075366;28;20029;-78
2023/08/10 05:32:05;;;;;;;7.20;5.32;;;486.50;2380.80;;;;;;5075418;28;20028;-78
2023/08/10 05:34:31;;;;;;;5.88;4.80;;;486.60;2380.80;;;;;;5075028;28;20025;-78
2023/08/10 05:36:57;;;;;;;5.63;4.80;;;486.70;2380.80;;;;;;5078095;28;20112;-76
2023/08/10 05:39:23;;;;;;;5.38;4.85;;;486.70;2380.80;;;;;;5100219;28;20021;-78
2023/08/10 05:41:49;;;;;;;8.07;5.00;;;486.80;2380.80;;;;;;5084883;28;20037;-77
2023/08/10 05:44:15;;;;;;;7.22;4.95;;;486.90;2380.80;;;;;;5076244;28;20031;-78
2023/08/10 05:46:40;;;;;;;7.22;4.68;;;486.90;2380.80;;;;;;5075305;28;20024;-78
2023/08/10 05:49:06;;;;;;;6.53;4.78;;;486.90;2380.80;;;;;;5074833;28;20020;-78
2023/08/10 05:51:32;;;;;;;10.35;5.05;;;486.90;2380.80;;;;;;5075007;28;20036;-80
2023/08/10 05:53:58;;;;;;;8.70;4.35;;;487.00;2380.80;;;;;;5075887;28;20074;-81
2023/08/10 05:56:24;;;;;;;5.25;3.83;;;487.10;2380.80;;;;;;5074991;28;20464;-77
2023/08/10 05:58:50;;;;;;;6.60;4.20;;;487.10;2380.80;;;;;;5074033;28;20028;-77
2023/08/10 06:01:16;;;;;;;7.70;5.40;;;487.10;2380.80;;;;;;5074475;28;20380;-78
2023/08/10 06:03:42;;;;;;;6.90;4.30;;;487.20;2380.80;;;;;;5076011;28;20069;-79
2023/08/10 06:06:09;;;;;;;5.68;4.13;;;487.20;2380.80;;;;;;5076277;28;20108;-78
2023/08/10 06:08:35;;;;;;;8.13;4.63;;;487.10;2380.80;;;;;;5075369;28;20413;-80
2023/08/10 06:11:02;;;;;;;8.20;4.53;;;487.10;2380.80;;;;;;5073975;28;20051;-77
2023/08/10 06:13:28;;;;;;;9.52;4.63;;;487.00;2380.80;;;;;;5074539;28;20460;-78
2023/08/10 06:15:53;;;;;;;7.53;4.35;;;487.00;2380.80;;;;;;5074240;28;20031;-78
2023/08/10 06:18:19;;;;;;;6.30;4.30;;;487.00;2380.80;;;;;;5074199;28;20049;-79
2023/08/10 06:20:46;;;;;;;7.80;4.57;;;487.10;2380.80;;;;;;5074257;28;20039;-78
2023/08/10 06:23:12;;;;;;;5.05;3.80;;;487.10;2380.80;;;;;;5074210;28;20029;-78
2023/08/10 06:25:38;;;;;;;5.78;4.10;;;487.10;2380.80;;;;;;5074113;28;20086;-79
2023/08/10 06:28:06;;;;;;;10.60;4.13;;;487.00;2380.80;;;;;;5074390;28;20028;-77
2023/08/10 06:30:33;;;;;;;5.97;4.15;;;487.10;2380.80;;;;;;5075282;28;20480;-77
2023/08/10 06:32:58;;;;;;;7.32;4.30;;;487.20;2380.80;;;;;;5075580;28;20028;-77
2023/08/10 06:35:24;;;;;;;5.40;4.25;;;487.20;2380.80;;;;;;5074184;28;20021;-78
2023/08/10 06:37:50;;;;;;;5.78;4.03;;;487.30;2380.80;;;;;;5073880;28;20032;-79
2023/08/10 06:40:16;;;;;;;5.05;3.70;;;512.00;2380.80;;;;;;5074111;28;20047;-78
2023/08/10 06:42:42;;;;;;;5.53;3.85;;;512.10;2380.80;;;;;;5073509;28;20115;-78
2023/08/10 06:45:08;;;;;;;8.18;4.03;;;512.20;2380.80;;;;;;5073870;28;20028;-78
2023/08/10 06:47:35;;;;;;;8.00;4.45;;;512.40;2380.80;;;;;;5073846;28;20025;-78
2023/08/10 06:50:01;;;;;;;6.35;4.05;;;512.50;2380.80;;;;;;5073472;28;20127;-79
2023/08/10 06:52:28;;;;;;;4.80;3.78;;;512.60;2380.80;;;;;;5073585;28;20029;-77
2023/08/10 06:54:54;;;;;;;6.18;3.70;;;512.80;2380.80;;;;;;5073664;28;20048;-78
2023/08/10 06:57:20;;;;;;;16.73;4.28;;;512.90;2380.80;;;;;;5072610;28;20063;-78
2023/08/10 06:59:46;;;;;;;4.43;3.17;;;537.70;2406.40;;;;;;5073575;28;20029;-77
2023/08/10 07:02:13;;;;;;;7.45;3.78;;;537.80;2406.40;;;;;;5073494;28;20032;-77
2023/08/10 07:04:43;;;;;;;4.25;3.33;;;537.90;2406.40;;;;;;5073213;28;20051;-77
2023/08/10 07:07:09;;;;;;;5.82;3.30;;;538.00;2406.40;;;;;;5074775;28;20043;-76
2023/08/10 07:09:36;;;;;;;6.07;3.40;;;538.00;2406.40;;;;;;5074439;28;20527;-76
2023/08/10 07:12:03;;;;;;;7.63;3.33;;;538.00;2406.40;;;;;;5075071;28;20139;-76
2023/08/10 07:14:29;;;;;;;7.07;4.28;;;537.80;2406.40;;;;;;5074590;28;20036;-78
2023/08/10 07:16:55;;;;;;;5.97;3.70;;;537.70;2406.40;;;;;;5072735;28;20025;-80
2023/08/10 07:19:21;;;;;;;5.32;3.63;;;537.60;2406.40;;;;;;5072847;28;20090;-78
2023/08/10 07:21:47;;;;;;;5.65;3.90;;;537.60;2406.40;;;;;;5078684;28;20417;-80
2023/08/10 07:24:12;;;;;;;6.38;4.40;;;512.90;2380.80;;;;;;5092935;28;20047;-78
2023/08/10 07:26:38;;;;;;;5.97;4.65;;;512.80;2380.80;;;;;;5094603;28;20020;-78
2023/08/10 07:29:04;;;;;;;6.35;4.30;;;512.80;2380.80;;;;;;5093497;28;20357;-81
2023/08/10 07:31:31;;;;;;;3.80;2.78;;;512.70;2380.80;;;;;;5093404;28;20119;-81
2023/08/10 07:34:01;;;;;;;7.35;3.58;;;512.70;2380.80;;;;;;5092963;28;20032;-78
2023/08/10 07:36:27;;;;;;;6.85;4.25;;;512.60;2380.80;;;;;;5093233;28;20024;-79
2023/08/10 07:38:55;;;;;;;8.23;4.57;;;512.30;2380.80;;;;;;5092989;28;20031;-78
2023/08/10 07:41:23;;;;;;;7.05;4.75;;;512.50;2380.80;;;;;;5094417;28;20029;-80
2023/08/10 07:43:49;;;;;;;6.43;4.22;;;512.30;2380.80;;;;;;5093190;28;20024;-78
2023/08/10 07:46:15;;;;;;;7.53;5.30;;;512.20;2380.80;;;;;;5092902;28;20038;-78
2023/08/10 07:48:41;;;;;;;6.88;5.30;;;487.10;2380.80;;;;;;5093232;28;20051;-77
2023/08/10 07:51:07;;;;;;;6.88;5.68;;;512.10;2380.80;;;;;;5094177;28;20460;-80
2023/08/10 07:53:33;;;;;;;13.55;6.95;;;512.00;2380.80;;;;;;5094183;28;20455;-77
2023/08/10 07:55:59;;;;;;;8.15;6.20;;;512.00;2380.80;;;;;;5092841;28;20028;-77
2023/08/10 07:58:25;;;;;;;7.85;6.43;;;487.30;2380.80;;;;;;5092852;28;20517;-78
2023/08/10 08:00:51;;;;;;;10.48;6.47;;;487.30;2380.80;;;;;;5092116;28;20036;-79
2023/08/10 08:03:17;;;;;;;7.65;6.70;;;512.00;2380.80;;;;;;5091725;28;20031;-80
2023/08/10 08:05:43;;;;;;;8.52;6.75;;;512.00;2380.80;;;;;;5092770;28;20077;-79
2023/08/10 08:08:09;;;;;;;7.70;6.90;;;512.10;2380.80;;;;;;5093476;28;20453;-80
2023/08/10 08:10:36;;;;;;;8.07;6.50;;;512.10;2380.80;;;;;;5093630;28;20038;-83
2023/08/10 08:13:03;;;;;;;9.93;6.25;;;512.20;2380.80;;;;;;5090948;28;20114;-82
2023/08/10 08:15:34;;;;;;;8.43;7.03;;;512.20;2380.80;;;;;;5093269;28;20349;-81
2023/08/10 08:18:38;;;;;;;8.95;6.32;;;512.30;2380.80;;;;;;5097817;28;20127;-82
2023/08/10 08:21:12;;;;;;;8.95;6.50;;;512.30;2380.80;;;;;;5089182;28;20024;-80
2023/08/10 08:23:38;;;;;;;7.65;6.18;;;512.30;2380.80;;;;;;5090696;28;20051;-81
2023/08/10 08:26:04;;;;;;;12.15;6.38;;;512.30;2380.80;;;;;;5095050;28;20103;-78
2023/08/10 08:28:30;;;;;;;6.22;4.88;;;512.40;2380.80;;;;;;5094904;28;20107;-79
2023/08/10 08:34:23;;;;;;;6.30;5.28;;;512.30;2380.80;;;;;;5093747;28;20502;-78
2023/08/10 08:36:49;;;;;;;6.18;4.82;;;512.30;2380.80;;;;;;5092515;28;20032;-79
2023/08/10 08:39:15;;;;;;;6.72;5.10;;;512.40;2380.80;;;;;;5090612;28;20537;-78
2023/08/10 08:41:42;;;;;;;6.38;4.93;;;512.40;2380.80;;;;;;5090759;28;20067;-79
2023/08/10 08:44:09;;;;;;;6.45;5.72;;;512.60;2380.80;;;;;;5088646;28;20024;-78
2023/08/10 08:46:40;;;;;;;8.25;6.05;;;512.60;2380.80;;;;;;5072198;28;20427;-78
2023/08/10 08:49:06;;;;;;;6.67;5.17;;;512.80;2380.80;;;;;;5070623;28;20025;-79
2023/08/10 08:51:33;;;;;;;6.07;5.35;;;512.70;2380.80;;;;;;5087037;28;20028;-79
2023/08/10 08:54:02;;;;;;;7.72;5.75;;;512.80;2380.80;;;;;;5092631;28;20382;-77
2023/08/10 08:56:28;;;;;;;6.53;5.43;;;512.90;2380.80;;;;;;5096006;28;20028;-79
2023/08/10 08:58:54;;;;;;;6.18;5.00;;;537.60;2406.40;;;;;;5091812;28;20033;-78
2023/08/10 09:01:21;;;;;;;5.82;5.22;;;537.80;2406.40;;;;;;5093190;28;20031;-79
2023/08/10 09:03:48;;;;;;;6.38;5.07;;;538.00;2406.40;;;;;;5093222;28;20051;-77
2023/08/10 09:06:14;;;;;;;6.95;5.20;;;538.10;2406.40;;;;;;5091549;28;20028;-79
2023/08/10 09:08:41;;;;;;;8.23;5.53;;;538.20;2406.40;;;;;;5092712;28;20046;-79
2023/08/10 09:11:08;;;;;;;7.43;5.30;;;538.40;2406.40;;;;;;5091392;28;20024;-78
2023/08/10 09:13:34;;;;;;;6.43;5.25;;;538.40;2406.40;;;;;;5091742;28;20452;-79
2023/08/10 09:16:12;;;;;;;6.35;4.40;;;538.30;2406.40;;;;;;5091630;28;20024;-79
2023/08/10 09:18:42;;;;;;;5.72;4.65;;;538.30;2406.40;;;;;;5091506;28;20121;-80
2023/08/10 09:21:23;;;;;;;6.00;4.45;;;538.50;2406.40;;;;;;5091955;28;20032;-79
2023/08/10 09:23:53;;;;;;;5.38;4.25;;;538.50;2406.40;;;;;;5079103;28;20357;-80
2023/08/10 09:26:20;;;;;;;5.25;4.15;;;563.40;2432.00;;;;;;5091633;28;20088;-79
2023/08/10 09:28:50;;;;;;;4.10;3.20;;;563.30;2432.00;;;;;;5090077;28;20032;-80
2023/08/10 09:31:23;;;;;;;4.32;2.83;;;563.70;2432.00;;;;;;5091308;28;20169;-80
2023/08/10 09:33:54;;;;;;;4.43;3.05;;;563.70;2432.00;;;;;;5087812;28;20073;-80
2023/08/10 09:36:26;;;;;;;4.82;2.45;;;563.80;2432.00;;;;;;5088676;28;20072;-80
2023/08/10 09:38:52;;;;;;;3.45;2.30;;;563.80;2432.00;;;;;;5092876;28;20024;-80
2023/08/10 09:41:20;;;;;;;4.60;2.50;;;563.70;2432.00;;;;;;5117700;28;20028;-80
2023/08/10 09:43:47;;;;;;;4.38;2.30;;;563.70;2432.00;;;;;;5105942;28;20027;-79
2023/08/10 09:46:17;;;;;;;4.85;2.30;;;563.70;2432.00;;;;;;5092987;28;20090;-81
2023/08/10 09:48:50;;;;;;;4.78;2.20;;;563.70;2432.00;;;;;;5095662;28;20028;-79
